Other Aviation Products
Issued by NWS

Home | Current Version | Previous Version | Text Only | Print | Product List | Glossary On
Versions: 1 2
000
NOAK58 PAWU 252044
OAVAWU
NATIONAL WEATHER SERVICE ALASKA AVIATION WEATHER UNIT
ANCHORAGE ALASKA

TO:    FORENSIC SERVICES MANAGER (W/OS23)
       NATIONAL WEATHER SERVICE
       C/O TELECOMMUNICATIONS GATEWAY
       SILVER SPRING, MD 20910

INFO:  ATTENTION ALASKA REGION - REGIONAL AVIATION METEOROLOGIST - W/AR1X1

ALPHA     N4827K, NAVION, PILOT: FOREST KIRST.

BRAVO     ATIGUN PASS, NEAR PUMP STATION 4, ALEYSKA PIPELINE. 4 ABOARD/4 CRITICALLY INJURED.
          AIRCRAFT REPORTED DOWN AT 24/2145Z

CHARLIE   SEE ABOVE.

DELTA     METAR PABT 241953Z 01006KT 10SM FEW200 15/05 A2989 RMK AO2 SLP131 T01500050
          201408242053
          METAR PABT 242053Z 03009KT 10SM FEW080 FEW200 17/05 A2987 RMK AO2 SLP121 T01670050 58021
          201408242153
          METAR PABT 242153Z 02007KT 10SM FEW080 FEW200 18/04 A2984 RMK AO2 SLP111 T01830044
          201408242253

ECHO      PABT 241740Z 2418/2518 01006KT P6SM SKC
          FM242300 01006KT P6SM SCT060
          FM250800 VRB06KT P6SM SKC=

FOXTROT   SGLFAI 70261
          PPBB  74128 70261 90012 36003 06008 07510 90346 08009 10507
          23502 90789 21009 22513 22513 91234 24507 26007 26512 9168/
          27019 28020 92058 27519 26542 27543 93013 26544 25545 27049
          937// 25555 942// 26531 950// 27022


GOLF      201408241444
          FAAK59 PAWU 241444 AAA
          FA9W
          FAIC FA 241440 AMD
          AK NRN HLF...
          NORTH SLOPES OF BROOKS RANGE FH...VALID UNTIL 250000
          ...CLOUDS/WX...
          ***AIRMET MT OBSC***E PAKP MTS OCNL OBSC CLDS/PCPN. NC...
          OTRW SCT040 BKN060 TOP 160.
          OVER NRN PLAIN OCNL BKN040 -SHRA DMSHG FM W.
          OTLK VALID 250000-250600...VFR SHRA.
          PASSES...
          ANAKTUVUK...VFR ISOL MVFR CIG SHRA. ATIGUN...MVFR CIG SHRA.
          ...TURB...
          NIL SIG.
          ...ICE AND FZLVL...
          TIL 17Z NRN PLAINS ISOL MOD ICEIC 060-160. FZLVL 060.

          201408242006
          FAAK59 PAWU 242006
          FA9W
          FAIC FA 242015
          AK NRN HLF...
          NORTH SLOPES OF BROOKS RANGE FH...VALID UNTIL 250800
          ...CLOUDS/WX...
          ***AIRMET MT OBSC***E PAKP MTS OCNL OBSC CLDS/PCPN. NC...
          OTRW SCT040 BKN060 TOP 160.
          OVER NRN PLAIN OCNL BKN040 -SHRA DMSHG FM W.
          OTLK VALID 250800-251400...VFR SHRA.
          PASSES...ANAKTUVUK...ATIGUN...N SIDE MVFR CIG SHRA. S SIDE VFR.
          ...TURB...
          NIL SIG.
          ...ICE AND FZLVL...
          NIL SIG. FZLVL 060.

HOTEL     UNKNOWN.

DAVE EDDY/CARRIE HAISLEY, METEOROLOGIST, AAWU






USA.gov is the U.S. government's official web portal to all federal, state and local government web resources and services.